createdAt,value
2019-05-29T00:04:47.320Z,100417.25
2019-05-29T00:09:49.779Z,100420.19
2019-05-29T00:14:52.233Z,100422.38
2019-05-29T00:19:54.687Z,100428.34
2019-05-29T00:24:57.144Z,100437.33
2019-05-29T00:29:59.600Z,100442.62
2019-05-29T00:35:02.059Z,100441.50
2019-05-29T00:40:08.754Z,100449.75
2019-05-29T00:45:09.900Z,100453.91
2019-05-29T00:50:12.445Z,100455.72
2019-05-29T00:55:14.804Z,100455.91
2019-05-29T01:00:17.514Z,100460.84
2019-05-29T01:05:20.183Z,100468.91
2019-05-29T01:10:22.226Z,100472.84
2019-05-29T01:15:24.676Z,100475.59
2019-05-29T01:20:27.142Z,100488.77
2019-05-29T01:25:29.601Z,100488.77
2019-05-29T01:30:32.078Z,100489.16
2019-05-29T01:35:34.534Z,100493.52
2019-05-29T01:40:36.996Z,100491.72
2019-05-29T01:45:39.473Z,100496.06
2019-05-29T01:50:41.933Z,100500.39
2019-05-29T01:55:44.504Z,100507.08
2019-05-29T02:00:46.966Z,100518.30
2019-05-29T02:05:49.436Z,100527.37
2019-05-29T02:10:51.895Z,100529.92
2019-05-29T02:15:54.364Z,100541.90
2019-05-29T02:20:56.828Z,100542.70
2019-05-29T02:25:59.292Z,100545.25
2019-05-29T02:31:01.791Z,100549.20
2019-05-29T02:36:04.298Z,100549.59
2019-05-29T02:41:06.769Z,100553.91
2019-05-29T02:46:09.237Z,100561.41
2019-05-29T02:51:12.383Z,100567.30
2019-05-29T02:56:14.195Z,100570.67
2019-05-29T03:01:16.667Z,100574.20
2019-05-29T03:06:19.127Z,100580.50
2019-05-29T03:11:23.088Z,100587.80
2019-05-29T03:16:26.101Z,100596.27
2019-05-29T03:21:28.221Z,100596.63
2019-05-29T03:26:30.797Z,100606.28
2019-05-29T03:31:38.141Z,100605.69
2019-05-29T03:36:39.625Z,100609.63
2019-05-29T03:41:36.496Z,100619.26
2019-05-29T03:46:45.172Z,100628.92
2019-05-29T03:51:41.414Z,100642.12
2019-05-29T03:56:43.883Z,100645.88
2019-05-29T04:01:46.348Z,100655.51
2019-05-29T04:06:48.816Z,100658.27
2019-05-29T04:11:51.292Z,100667.75
2019-05-29T04:16:59.802Z,100677.39
2019-05-29T04:21:56.226Z,100680.72
2019-05-29T04:26:58.705Z,100683.72
2019-05-29T04:32:01.280Z,100693.55
2019-05-29T04:37:07.294Z,100703.42
2019-05-29T04:42:06.206Z,100709.52
2019-05-29T04:47:11.506Z,100715.06
2019-05-29T04:52:11.225Z,100723.55
2019-05-29T04:57:13.691Z,100730.04
2019-05-29T05:02:16.278Z,100735.97
2019-05-29T05:07:18.816Z,100741.86
2019-05-29T05:12:21.292Z,100736.90
2019-05-29T05:17:26.545Z,100745.76
2019-05-29T05:22:26.286Z,100756.78
2019-05-29T05:27:30.053Z,100757.36
2019-05-29T05:32:32.554Z,100765.73
2019-05-29T05:37:34.702Z,100787.39
2019-05-29T05:42:37.118Z,100792.97
2019-05-29T05:47:50.406Z,100799.58
2019-05-29T05:52:41.687Z,100808.58
2019-05-29T05:57:43.537Z,100819.10
2019-05-29T06:02:45.998Z,100832.01
2019-05-29T06:07:48.453Z,100831.61
2019-05-29T06:12:50.932Z,100840.43
2019-05-29T06:18:10.405Z,100842.25
2019-05-29T06:22:55.853Z,100847.60
2019-05-29T06:27:58.310Z,100849.30
2019-05-29T06:33:00.767Z,100853.78
2019-05-29T06:38:03.250Z,100859.38
2019-05-29T06:43:05.698Z,100872.45
2019-05-29T06:48:08.159Z,100876.21
2019-05-29T06:53:10.627Z,100873.44
2019-05-29T06:58:13.080Z,100885.67
2019-05-29T07:03:15.528Z,100889.27
2019-05-29T07:08:28.949Z,100898.86
2019-05-29T07:13:20.440Z,100903.58
2019-05-29T07:18:22.921Z,100912.27
2019-05-29T07:23:25.373Z,100916.85
2019-05-29T07:28:27.832Z,100925.81
2019-05-29T07:33:30.289Z,100929.92
2019-05-29T07:38:32.744Z,100928.03
2019-05-29T07:43:35.209Z,100930.67
2019-05-29T07:48:38.423Z,100937.19
2019-05-29T07:53:40.193Z,100943.81
2019-05-29T07:58:49.084Z,100949.34
2019-05-29T08:03:45.343Z,100951.73
2019-05-29T08:08:47.549Z,100959.31
2019-05-29T08:13:50.159Z,100969.66
2019-05-29T08:18:53.188Z,100960.76
2019-05-29T08:23:54.921Z,100973.09
2019-05-29T08:28:57.379Z,100972.87
2019-05-29T08:33:59.836Z,100970.02
2019-05-29T08:39:02.316Z,100987.42
2019-05-29T08:44:04.764Z,101001.55
2019-05-29T08:49:07.233Z,100993.33
2019-05-29T08:54:23.378Z,100999.63
2019-05-29T08:59:12.391Z,101007.63
2019-05-29T09:04:14.853Z,101008.91
2019-05-29T09:09:17.334Z,101020.94
2019-05-29T09:14:19.872Z,101024.35
2019-05-29T09:19:22.869Z,101031.34
2019-05-29T09:24:24.792Z,101033.80
2019-05-29T09:29:27.241Z,101033.36
2019-05-29T09:34:29.711Z,101025.89
2019-05-29T09:39:32.173Z,101030.55
2019-05-29T09:44:39.224Z,101029.39
2019-05-29T09:49:37.077Z,101031.70
2019-05-29T09:54:39.545Z,101039.25
2019-05-29T09:59:42.012Z,101038.68
2019-05-29T10:04:44.453Z,101043.47
2019-05-29T10:09:46.919Z,101050.34
2019-05-29T10:14:51.443Z,101043.26
2019-05-29T10:19:51.868Z,101047.92
2019-05-29T10:24:56.224Z,101053.27
2019-05-29T10:29:56.802Z,101051.64
2019-05-29T10:34:59.279Z,101051.87
2019-05-29T10:40:01.741Z,101036.27
2019-05-29T10:45:07.177Z,101046.59
2019-05-29T10:50:09.659Z,101034.45
2019-05-29T10:55:14.981Z,101042.03
2019-05-29T11:00:17.500Z,101037.41
2019-05-29T11:05:19.962Z,101047.84
2019-05-29T11:10:22.433Z,101045.97
2019-05-29T11:15:24.876Z,101043.55
2019-05-29T11:20:27.377Z,101031.98
2019-05-29T11:25:29.858Z,101029.28
2019-05-29T11:30:32.402Z,101037.88
2019-05-29T11:35:34.928Z,101033.52
2019-05-29T11:40:37.817Z,101044.64
2019-05-29T11:45:39.895Z,101040.29
2019-05-29T11:50:42.344Z,101041.25
2019-05-29T11:55:44.796Z,101046.13
2019-05-29T12:00:47.364Z,101059.48
2019-05-29T12:05:51.041Z,101081.31
2019-05-29T12:10:53.199Z,101073.63
2019-05-29T12:15:55.954Z,101065.14
2019-05-29T12:20:58.499Z,101071.92
2019-05-29T12:26:16.618Z,101067.60
2019-05-29T12:31:03.506Z,101075.67
2019-05-29T12:36:04.619Z,101084.87
2019-05-29T12:41:07.091Z,101081.91
2019-05-29T12:46:09.596Z,101078.82
2019-05-29T12:51:12.055Z,101084.19
2019-05-29T12:56:14.522Z,101084.53
2019-05-29T13:01:17.014Z,101088.53
2019-05-29T13:06:19.491Z,101087.13
2019-05-29T13:11:21.958Z,101092.51
2019-05-29T13:16:24.427Z,101089.97
2019-05-29T13:21:26.892Z,101098.19
2019-05-29T13:26:29.355Z,101093.24
2019-05-29T13:31:31.815Z,101098.48
2019-05-29T13:36:34.268Z,101094.72
2019-05-29T13:41:36.772Z,101093.69
2019-05-29T13:46:39.259Z,101101.67
2019-05-29T13:51:41.705Z,101104.00
2019-05-29T13:56:44.396Z,101104.34
2019-05-29T14:01:48.450Z,101096.79
2019-05-29T14:06:52.636Z,101100.93
2019-05-29T14:11:51.739Z,101105.47
2019-05-29T14:16:54.225Z,101108.45
2019-05-29T14:21:56.685Z,101113.09
2019-05-29T14:26:59.137Z,101100.74
2019-05-29T14:32:02.888Z,101101.41
2019-05-29T14:37:04.959Z,101102.07
2019-05-29T14:42:08.237Z,101099.58
2019-05-29T14:47:10.213Z,101095.59
2019-05-29T14:52:13.323Z,101102.94
2019-05-29T14:57:25.236Z,101101.83
2019-05-29T15:02:23.322Z,101101.86
2019-05-29T15:07:22.674Z,101096.03
2019-05-29T15:12:21.593Z,101097.22
2019-05-29T15:17:24.054Z,101105.31
2019-05-29T15:22:26.514Z,101104.13
2019-05-29T15:27:28.997Z,101104.42
2019-05-29T15:32:31.464Z,101106.70
2019-05-29T15:37:33.936Z,101108.37
2019-05-29T15:42:36.442Z,101118.87
2019-05-29T15:47:38.915Z,101114.50
2019-05-29T15:52:41.381Z,101110.30
2019-05-29T15:57:43.868Z,101117.43
2019-05-29T16:02:49.008Z,101118.23
2019-05-29T16:07:48.794Z,101109.90
2019-05-29T16:12:51.306Z,101118.08
2019-05-29T16:17:53.717Z,101113.71
2019-05-29T16:22:56.179Z,101113.88
2019-05-29T16:27:58.637Z,101120.45
2019-05-29T16:33:01.109Z,101114.83
2019-05-29T16:38:03.599Z,101120.18
2019-05-29T16:43:06.035Z,101127.45
2019-05-29T16:48:08.486Z,101127.41
2019-05-29T16:53:10.942Z,101131.76
2019-05-29T16:58:13.445Z,101142.92
2019-05-29T17:03:15.918Z,101137.78
2019-05-29T17:08:18.376Z,101142.47
2019-05-29T17:13:20.819Z,101142.67
2019-05-29T17:18:23.301Z,101141.53
2019-05-29T17:23:25.762Z,101142.91
2019-05-29T17:28:28.605Z,101145.01
2019-05-29T17:33:30.776Z,101144.02
2019-05-29T17:38:33.242Z,101145.47
2019-05-29T17:43:35.716Z,101149.11
2019-05-29T17:48:38.202Z,101151.52
2019-05-29T17:53:40.770Z,101163.02
2019-05-29T17:58:43.225Z,101164.62
2019-05-29T18:03:45.703Z,101173.84
2019-05-29T18:08:48.730Z,101179.25
2019-05-29T18:13:51.795Z,101174.72
2019-05-29T18:18:54.178Z,101188.80
2019-05-29T18:23:56.682Z,101193.58
2019-05-29T18:28:59.183Z,101188.30
2019-05-29T18:34:01.666Z,101202.16
2019-05-29T18:39:04.173Z,101202.42
2019-05-29T18:44:06.618Z,101204.62
2019-05-29T18:49:09.087Z,101210.18
2019-05-29T18:54:11.553Z,101211.78
2019-05-29T18:59:14.034Z,101211.95
2019-05-29T19:04:16.560Z,101223.99
2019-05-29T19:09:19.042Z,101239.75
2019-05-29T19:14:21.759Z,101246.04
2019-05-29T19:19:24.151Z,101252.88
2019-05-29T19:24:26.621Z,101256.41
2019-05-29T19:29:29.290Z,101265.26
2019-05-29T19:34:31.679Z,101268.69
2019-05-29T19:39:34.250Z,101278.57
2019-05-29T19:44:36.525Z,101285.86
2019-05-29T19:49:39.031Z,101296.16
2019-05-29T19:54:41.498Z,101304.84
2019-05-29T19:59:43.964Z,101302.97
2019-05-29T20:04:46.429Z,101311.42
2019-05-29T20:09:48.908Z,101320.35
2019-05-29T20:14:51.380Z,101321.35
2019-05-29T20:19:53.840Z,101327.32
2019-05-29T20:24:56.304Z,101322.84
2019-05-29T20:29:58.769Z,101331.34
2019-05-29T20:35:01.244Z,101331.97
2019-05-29T20:40:03.751Z,101337.04
2019-05-29T20:45:06.230Z,101345.68
2019-05-29T20:50:08.701Z,101351.41
2019-05-29T20:55:11.154Z,101345.89
2019-05-29T21:00:13.667Z,101349.62
2019-05-29T21:05:16.130Z,101354.67
2019-05-29T21:10:18.593Z,101361.91
2019-05-29T21:15:21.141Z,101364.94
2019-05-29T21:20:23.539Z,101366.54
2019-05-29T21:25:25.995Z,101364.05
2019-05-29T21:30:28.460Z,101369.05
2019-05-29T21:35:30.928Z,101364.66
2019-05-29T21:40:33.399Z,101368.30
2019-05-29T21:45:36.785Z,101376.65
2019-05-29T21:50:39.092Z,101374.74
2019-05-29T21:55:41.495Z,101367.90
2019-05-29T22:00:44.513Z,101385.41
2019-05-29T22:05:46.798Z,101381.58
2019-05-29T22:10:48.248Z,101381.20
2019-05-29T22:15:50.739Z,101388.96
2019-05-29T22:20:53.163Z,101389.11
2019-05-29T22:25:55.653Z,101384.06
2019-05-29T22:30:59.431Z,101386.59
2019-05-29T22:36:01.720Z,101387.80
2019-05-29T22:41:03.100Z,101389.22
2019-05-29T22:46:05.579Z,101392.81
2019-05-29T22:51:08.036Z,101390.75
2019-05-29T22:56:10.502Z,101400.95
2019-05-29T23:01:12.972Z,101402.61
2019-05-29T23:06:15.421Z,101401.16
2019-05-29T23:11:17.886Z,101397.63
2019-05-29T23:16:20.360Z,101394.16
2019-05-29T23:21:22.827Z,101393.88
2019-05-29T23:26:25.273Z,101392.26
2019-05-29T23:31:27.750Z,101397.10
2019-05-29T23:36:30.308Z,101392.73
2019-05-29T23:41:32.759Z,101392.57
2019-05-29T23:46:35.221Z,101389.98
2019-05-29T23:51:37.681Z,101385.87
2019-05-29T23:56:40.150Z,101374.55
